createdAt,value
2019-01-12T00:01:35.567Z,101550.06
2019-01-12T00:04:06.916Z,101555.19
2019-01-12T00:06:38.089Z,101557.41
2019-01-12T00:09:12.522Z,101561.86
2019-01-12T00:11:43.708Z,101546.53
2019-01-12T00:14:16.934Z,101560.15
2019-01-12T00:16:48.191Z,101546.92
2019-01-12T00:19:25.366Z,101550.52
2019-01-12T00:21:56.719Z,101545.67
2019-01-12T00:24:31.489Z,101547.38
2019-01-12T00:27:00.867Z,101546.58
2019-01-12T00:29:32.032Z,101543.91
2019-01-12T00:32:03.329Z,101548.20
2019-01-12T00:34:34.622Z,101539.87
2019-01-12T00:37:05.932Z,101541.69
2019-01-12T00:39:37.068Z,101546.58
2019-01-12T00:42:08.341Z,101544.83
2019-01-12T00:44:39.602Z,101542.20
2019-01-12T00:47:12.987Z,101540.89
2019-01-12T00:49:43.972Z,101540.91
2019-01-12T00:52:15.217Z,101543.58
2019-01-12T00:54:46.477Z,101530.92
2019-01-12T00:57:17.773Z,101542.39
2019-01-12T00:59:49.067Z,101539.44
2019-01-12T01:02:20.394Z,101539.03
2019-01-12T01:04:51.641Z,101534.92
2019-01-12T01:07:22.866Z,101539.25
2019-01-12T01:09:54.064Z,101536.62
2019-01-12T01:12:25.395Z,101535.30
2019-01-12T01:14:56.713Z,101530.59
2019-01-12T01:17:27.953Z,101533.53
2019-01-12T01:19:59.169Z,101530.61
2019-01-12T01:22:30.458Z,101528.90
2019-01-12T01:25:01.674Z,101524.44
2019-01-12T01:27:32.960Z,101523.55
2019-01-12T01:30:05.492Z,101532.71
2019-01-12T01:32:36.775Z,101538.41
2019-01-12T01:35:08.399Z,101533.14
2019-01-12T01:37:39.613Z,101536.58
2019-01-12T01:40:15.221Z,101530.20
2019-01-12T01:42:46.587Z,101531.38
2019-01-12T01:45:19.175Z,101534.45
2019-01-12T01:47:50.452Z,101534.80
2019-01-12T01:50:21.686Z,101530.98
2019-01-12T01:52:52.944Z,101535.72
2019-01-12T01:55:24.205Z,101529.20
2019-01-12T01:57:55.386Z,101530.61
2019-01-12T02:00:26.700Z,101526.99
2019-01-12T02:02:57.936Z,101529.22
2019-01-12T02:05:29.179Z,101522.66
2019-01-12T02:08:00.377Z,101520.48
2019-01-12T02:10:31.623Z,101528.36
2019-01-12T02:13:02.799Z,101525.26
2019-01-12T02:15:34.041Z,101517.31
2019-01-12T02:18:05.644Z,101523.91
2019-01-12T02:20:36.831Z,101519.53
2019-01-12T02:23:08.080Z,101512.13
2019-01-12T02:25:39.314Z,101509.95
2019-01-12T02:28:10.567Z,101513.88
2019-01-12T02:30:41.872Z,101508.64
2019-01-12T02:33:13.149Z,101500.41
2019-01-12T02:35:44.415Z,101506.91
2019-01-12T02:38:15.696Z,101506.08
2019-01-12T02:40:46.964Z,101504.41
2019-01-12T02:43:18.520Z,101500.06
2019-01-12T02:45:49.890Z,101492.09
2019-01-12T02:48:21.131Z,101491.23
2019-01-12T02:50:52.390Z,101489.52
2019-01-12T02:53:23.742Z,101490.55
2019-01-12T02:55:54.914Z,101484.11
2019-01-12T02:58:26.150Z,101481.28
2019-01-12T03:00:57.328Z,101480.41
2019-01-12T03:03:28.562Z,101484.85
2019-01-12T03:05:59.834Z,101474.83
2019-01-12T03:08:31.158Z,101475.73
2019-01-12T03:11:02.449Z,101471.37
2019-01-12T03:13:42.604Z,101469.20
2019-01-12T03:16:13.993Z,101465.64
2019-01-12T03:18:45.236Z,101464.28
2019-01-12T03:21:16.526Z,101460.77
2019-01-12T03:23:47.673Z,101450.33
2019-01-12T03:26:18.871Z,101450.84
2019-01-12T03:28:50.101Z,101446.40
2019-01-12T03:31:21.416Z,101438.62
2019-01-12T03:33:52.748Z,101448.56
2019-01-12T03:36:24.122Z,101444.24
2019-01-12T03:38:55.297Z,101445.04
2019-01-12T03:41:26.604Z,101437.11
2019-01-12T03:43:57.828Z,101436.71
2019-01-12T03:46:29.086Z,101435.47
2019-01-12T03:49:00.334Z,101428.69
2019-01-12T03:51:31.585Z,101428.13
2019-01-12T03:54:02.742Z,101428.13
2019-01-12T03:56:33.940Z,101417.77
2019-01-12T03:59:05.393Z,101421.58
2019-01-12T04:01:36.618Z,101418.44
2019-01-12T04:04:07.782Z,101420.58
2019-01-12T04:06:39.033Z,101424.98
2019-01-12T04:09:11.459Z,101419.20
2019-01-12T04:11:42.691Z,101418.95
2019-01-12T04:14:13.950Z,101419.06
2019-01-12T04:16:45.245Z,101425.03
2019-01-12T04:19:16.470Z,101420.59
2019-01-12T04:21:47.726Z,101408.86
2019-01-12T04:24:18.966Z,101416.67
2019-01-12T04:26:50.154Z,101416.27
2019-01-12T04:29:21.414Z,101416.80
2019-01-12T04:31:52.647Z,101412.02
2019-01-12T04:34:23.791Z,101405.98
2019-01-12T04:36:54.984Z,101405.95
2019-01-12T04:39:26.218Z,101405.64
2019-01-12T04:41:57.512Z,101406.94
2019-01-12T04:44:28.723Z,101409.18
2019-01-12T04:46:59.989Z,101409.62
2019-01-12T04:49:31.209Z,101414.42
2019-01-12T04:52:02.438Z,101414.08
2019-01-12T04:54:33.648Z,101409.56
2019-01-12T04:57:04.969Z,101413.51
2019-01-12T04:59:36.177Z,101406.72
2019-01-12T05:02:07.461Z,101402.34
2019-01-12T05:04:38.708Z,101397.91
2019-01-12T05:07:09.998Z,101405.48
2019-01-12T05:09:41.135Z,101403.65
2019-01-12T05:12:12.411Z,101407.58
2019-01-12T05:14:43.752Z,101410.66
2019-01-12T05:17:15.058Z,101407.97
2019-01-12T05:19:46.429Z,101407.06
2019-01-12T05:22:17.624Z,101400.91
2019-01-12T05:24:48.901Z,101401.09
2019-01-12T05:27:20.178Z,101400.17
2019-01-12T05:29:51.465Z,101403.20
2019-01-12T05:32:41.687Z,101398.86
2019-01-12T05:35:12.959Z,101398.02
2019-01-12T05:37:44.210Z,101397.11
2019-01-12T05:40:15.766Z,101388.38
2019-01-12T05:42:47.019Z,101391.52
2019-01-12T05:45:18.377Z,101396.31
2019-01-12T05:47:49.632Z,101398.13
2019-01-12T05:50:20.919Z,101391.70
2019-01-12T05:52:52.189Z,101392.77
2019-01-12T05:55:23.395Z,101386.28
2019-01-12T05:57:54.592Z,101391.06
2019-01-12T06:00:26.236Z,101384.69
2019-01-12T06:02:57.508Z,101384.23
2019-01-12T06:05:28.663Z,101379.34
2019-01-12T06:07:59.925Z,101383.14
2019-01-12T06:10:31.136Z,101377.28
2019-01-12T06:13:02.423Z,101380.25
2019-01-12T06:15:33.635Z,101365.41
2019-01-12T06:18:04.924Z,101368.03
2019-01-12T06:20:36.084Z,101372.34
2019-01-12T06:23:07.362Z,101360.05
2019-01-12T06:25:38.583Z,101367.56
2019-01-12T06:28:09.875Z,101364.89
2019-01-12T06:30:41.102Z,101364.94
2019-01-12T06:33:12.350Z,101356.52
2019-01-12T06:35:43.657Z,101346.55
2019-01-12T06:38:14.889Z,101342.22
2019-01-12T06:40:46.155Z,101341.36
2019-01-12T06:43:17.399Z,101340.85
2019-01-12T06:45:48.648Z,101336.53
2019-01-12T06:48:19.887Z,101326.91
2019-01-12T06:50:51.171Z,101326.45
2019-01-12T06:53:22.301Z,101317.34
2019-01-12T06:55:53.595Z,101323.44
2019-01-12T06:58:24.827Z,101326.45
2019-01-12T07:00:56.061Z,101325.55
2019-01-12T07:03:27.181Z,101320.42
2019-01-12T07:05:58.445Z,101327.02
2019-01-12T07:08:29.605Z,101327.38
2019-01-12T07:11:00.789Z,101322.76
2019-01-12T07:13:32.017Z,101323.55
2019-01-12T07:16:03.239Z,101318.83
2019-01-12T07:18:34.477Z,101321.66
2019-01-12T07:21:05.753Z,101313.48
2019-01-12T07:23:37.037Z,101298.63
2019-01-12T07:26:08.305Z,101296.84
2019-01-12T07:28:39.588Z,101282.97
2019-01-12T07:31:11.209Z,101295.10
2019-01-12T07:33:42.518Z,101276.31
2019-01-12T07:36:13.803Z,101275.46
2019-01-12T07:38:46.418Z,101277.61
2019-01-12T07:41:17.679Z,101274.08
2019-01-12T07:43:48.955Z,101265.69
2019-01-12T07:46:29.518Z,101261.30
2019-01-12T07:49:00.698Z,101259.66
2019-01-12T07:51:32.041Z,101251.48
2019-01-12T07:54:03.254Z,101249.25
2019-01-12T07:56:34.516Z,101235.23
2019-01-12T07:59:05.679Z,101250.76
2019-01-12T08:01:36.933Z,101258.55
2019-01-12T08:04:08.134Z,101252.53
2019-01-12T08:06:39.422Z,101249.27
2019-01-12T08:09:11.525Z,101251.48
2019-01-12T08:11:42.811Z,101238.32
2019-01-12T08:14:14.015Z,101237.98
2019-01-12T08:16:45.217Z,101248.88
2019-01-12T08:19:16.507Z,101240.61
2019-01-12T08:21:47.808Z,101227.93
2019-01-12T08:24:18.962Z,101223.84
2019-01-12T08:26:55.701Z,101218.56
2019-01-12T08:29:26.953Z,101221.16
2019-01-12T08:31:58.254Z,101209.23
2019-01-12T08:34:29.556Z,101215.32
2019-01-12T08:37:00.877Z,101214.78
2019-01-12T08:39:32.188Z,101216.69
2019-01-12T08:42:03.510Z,101233.34
2019-01-12T08:44:34.819Z,101234.64
2019-01-12T08:47:06.099Z,101236.73
2019-01-12T08:49:37.373Z,101228.48
2019-01-12T08:52:08.718Z,101215.24
2019-01-12T08:54:40.062Z,101214.71
2019-01-12T08:57:13.091Z,101208.76
2019-01-12T08:59:44.356Z,101198.31
2019-01-12T09:02:15.665Z,101202.61
2019-01-12T09:04:46.954Z,101192.45
2019-01-12T09:07:18.232Z,101175.02
2019-01-12T09:09:49.510Z,101184.11
2019-01-12T09:12:21.250Z,101180.95
2019-01-12T09:14:52.529Z,101168.63
2019-01-12T09:17:23.830Z,101174.26
2019-01-12T09:19:55.277Z,101169.53
2019-01-12T09:22:26.614Z,101170.04
2019-01-12T09:24:57.891Z,101169.53
2019-01-12T09:27:29.194Z,101164.77
2019-01-12T09:30:00.787Z,101162.06
2019-01-12T09:32:38.478Z,101157.54
2019-01-12T09:35:10.180Z,101148.80
2019-01-12T09:37:41.544Z,101136.81
2019-01-12T09:40:16.226Z,101142.50
2019-01-12T09:42:47.941Z,101121.89
2019-01-12T09:45:20.335Z,101106.86
2019-01-12T09:47:51.842Z,101115.94
2019-01-12T09:50:24.441Z,101120.97
2019-01-12T09:52:55.689Z,101118.22
2019-01-12T09:55:26.930Z,101114.89
2019-01-12T09:57:58.228Z,101118.91
2019-01-12T10:00:29.829Z,101114.16
2019-01-12T10:03:01.079Z,101108.91
2019-01-12T10:05:32.257Z,101108.05
2019-01-12T10:08:03.519Z,101097.84
2019-01-12T10:10:34.712Z,101106.69
2019-01-12T10:13:06.047Z,101099.61
2019-01-12T10:15:37.301Z,101087.95
2019-01-12T10:18:08.528Z,101079.30
2019-01-12T10:20:39.934Z,101059.50
2019-01-12T10:23:11.218Z,101065.54
2019-01-12T10:25:42.493Z,101065.66
2019-01-12T10:28:13.764Z,101061.70
2019-01-12T10:30:44.958Z,101062.00
2019-01-12T10:33:16.203Z,101045.37
2019-01-12T10:35:47.498Z,101048.50
2019-01-12T10:38:18.940Z,101050.52
2019-01-12T10:40:50.152Z,101050.61
2019-01-12T10:43:21.484Z,101041.03
2019-01-12T10:45:52.798Z,101037.33
2019-01-12T10:48:24.382Z,101029.03
2019-01-12T10:50:55.721Z,101018.38
2019-01-12T10:53:26.955Z,101009.27
2019-01-12T10:55:58.250Z,101013.16
2019-01-12T10:58:29.492Z,101008.99
2019-01-12T11:01:00.754Z,101005.52
2019-01-12T11:03:31.988Z,101001.41
2019-01-12T11:06:03.298Z,100989.95
2019-01-12T11:08:34.531Z,100993.88
2019-01-12T11:11:06.050Z,100988.64
2019-01-12T11:13:37.210Z,100980.98
2019-01-12T11:16:08.612Z,100970.28
2019-01-12T11:18:39.871Z,100967.14
2019-01-12T11:21:11.115Z,100963.41
2019-01-12T11:23:42.308Z,100960.94
2019-01-12T11:26:13.524Z,100956.64
2019-01-12T11:28:44.731Z,100951.48
2019-01-12T11:31:19.761Z,100933.25
2019-01-12T11:33:48.841Z,100932.67
2019-01-12T11:36:20.188Z,100926.13
2019-01-12T11:38:51.456Z,100919.95
2019-01-12T11:41:22.635Z,100915.77
2019-01-12T11:43:53.778Z,100899.58
2019-01-12T11:46:24.953Z,100897.27
2019-01-12T11:48:56.273Z,100898.75
2019-01-12T11:51:27.523Z,100893.11
2019-01-12T11:53:58.744Z,100882.36
2019-01-12T11:56:30.033Z,100877.52
2019-01-12T11:59:01.316Z,100871.73
2019-01-12T12:01:32.587Z,100859.45
2019-01-12T12:04:03.847Z,100861.64
2019-01-12T12:06:35.188Z,100860.30
2019-01-12T12:09:09.390Z,100843.28
2019-01-12T12:11:40.659Z,100839.81
2019-01-12T12:14:11.818Z,100836.26
2019-01-12T12:16:43.041Z,100834.84
2019-01-12T12:19:14.242Z,100820.06
2019-01-12T12:21:45.670Z,100817.84
2019-01-12T12:24:16.920Z,100805.16
2019-01-12T12:26:48.117Z,100806.87
2019-01-12T12:29:19.356Z,100787.59
2019-01-12T12:31:50.623Z,100780.59
2019-01-12T12:34:21.778Z,100774.90
2019-01-12T12:36:53.183Z,100780.27
2019-01-12T12:39:24.597Z,100776.75
2019-01-12T12:41:55.873Z,100764.51
2019-01-12T12:44:27.153Z,100763.14
2019-01-12T12:46:58.703Z,100754.69
2019-01-12T12:49:30.024Z,100752.81
2019-01-12T12:52:01.388Z,100747.43
2019-01-12T12:54:32.646Z,100732.94
2019-01-12T12:57:03.856Z,100733.27
2019-01-12T12:59:35.130Z,100729.83
2019-01-12T13:02:06.381Z,100730.47
2019-01-12T13:04:37.673Z,100725.41
2019-01-12T13:07:08.929Z,100715.81
2019-01-12T13:09:40.313Z,100718.44
2019-01-12T13:12:12.203Z,100709.17
2019-01-12T13:14:43.444Z,100694.92
2019-01-12T13:17:14.983Z,100700.52
2019-01-12T13:19:46.589Z,100693.82
2019-01-12T13:22:17.924Z,100688.19
2019-01-12T13:24:49.190Z,100677.22
2019-01-12T13:27:20.484Z,100681.42
2019-01-12T13:29:51.855Z,100672.61
2019-01-12T13:32:23.251Z,100672.52
2019-01-12T13:34:54.590Z,100657.93
2019-01-12T13:37:25.797Z,100661.22
2019-01-12T13:39:56.993Z,100654.50
2019-01-12T13:42:28.352Z,100656.21
2019-01-12T13:44:59.616Z,100648.35
2019-01-12T13:47:30.895Z,100637.83
2019-01-12T13:50:02.139Z,100637.24
2019-01-12T13:52:33.395Z,100646.16
2019-01-12T13:55:05.514Z,100628.53
2019-01-12T13:57:37.105Z,100638.72
2019-01-12T14:00:31.995Z,100624.73
2019-01-12T14:03:03.478Z,100610.31
2019-01-12T14:05:34.983Z,100609.88
2019-01-12T14:08:08.062Z,100607.69
2019-01-12T14:10:39.392Z,100613.22
2019-01-12T14:13:11.051Z,100607.91
2019-01-12T14:15:42.654Z,100601.58
2019-01-12T14:18:13.969Z,100599.81
2019-01-12T14:20:45.400Z,100597.08
2019-01-12T14:23:20.820Z,100607.92
2019-01-12T14:25:52.174Z,100599.67
2019-01-12T14:28:23.411Z,100592.55
2019-01-12T14:30:55.287Z,100594.00
2019-01-12T14:33:26.533Z,100595.73
2019-01-12T14:35:57.820Z,100580.25
2019-01-12T14:38:29.096Z,100594.04
2019-01-12T14:41:00.373Z,100601.62
2019-01-12T14:43:31.700Z,100596.94
2019-01-12T14:46:03.074Z,100589.19
2019-01-12T14:48:34.367Z,100580.92
2019-01-12T14:51:07.260Z,100596.70
2019-01-12T14:53:38.748Z,100597.62
2019-01-12T14:56:10.103Z,100597.44
2019-01-12T14:58:41.427Z,100607.75
2019-01-12T15:01:12.716Z,100609.36
2019-01-12T15:03:43.938Z,100611.94
2019-01-12T15:06:15.632Z,100613.28
2019-01-12T15:08:47.018Z,100620.94
2019-01-12T15:11:18.347Z,100614.80
2019-01-12T15:13:49.578Z,100624.38
2019-01-12T15:16:20.760Z,100615.20
2019-01-12T15:18:52.019Z,100609.06
2019-01-12T15:21:23.370Z,100621.86
2019-01-12T15:23:54.750Z,100605.91
2019-01-12T15:26:25.961Z,100599.81
2019-01-12T15:28:57.291Z,100595.14
2019-01-12T15:31:28.614Z,100598.15
2019-01-12T15:33:59.831Z,100589.82
2019-01-12T15:36:31.114Z,100585.25
2019-01-12T15:39:02.370Z,100579.12
2019-01-12T15:41:33.611Z,100591.09
2019-01-12T15:44:04.993Z,100593.02
2019-01-12T15:46:36.228Z,100580.00
2019-01-12T15:49:07.694Z,100574.91
2019-01-12T15:51:38.929Z,100573.55
2019-01-12T15:54:10.202Z,100569.63
2019-01-12T15:56:41.480Z,100560.19
2019-01-12T15:59:12.820Z,100553.92
2019-01-12T16:01:44.038Z,100538.29
2019-01-12T16:04:15.320Z,100543.42
2019-01-12T16:06:46.479Z,100538.64
2019-01-12T16:11:52.819Z,100541.72
2019-01-12T16:14:23.979Z,100548.50
2019-01-12T16:16:55.146Z,100548.42
2019-01-12T16:19:26.388Z,100551.65
2019-01-12T16:21:57.626Z,100544.95
2019-01-12T16:24:28.784Z,100545.16
2019-01-12T16:27:00.291Z,100538.19
2019-01-12T16:29:31.519Z,100539.20
2019-01-12T16:32:06.075Z,100541.61
2019-01-12T16:34:37.358Z,100541.92
2019-01-12T16:37:08.613Z,100543.67
2019-01-12T16:39:39.774Z,100535.19
2019-01-12T16:42:10.973Z,100537.20
2019-01-12T16:44:42.268Z,100526.43
2019-01-12T16:47:13.489Z,100517.59
2019-01-12T16:49:45.460Z,100512.61
2019-01-12T16:52:17.197Z,100511.30
2019-01-12T16:54:52.291Z,100506.25
2019-01-12T16:57:24.727Z,100504.39
2019-01-12T17:00:10.246Z,100508.06
2019-01-12T17:02:45.253Z,100496.86
2019-01-12T17:05:20.114Z,100484.86
2019-01-12T17:07:52.176Z,100499.22
2019-01-12T17:10:28.408Z,100491.16
2019-01-12T17:13:00.464Z,100487.06
2019-01-12T17:15:41.843Z,100488.49
2019-01-12T17:20:48.885Z,100489.08
2019-01-12T17:23:22.043Z,100490.23
2019-01-12T17:26:00.741Z,100499.03
2019-01-12T17:28:37.221Z,100497.33
2019-01-12T17:31:05.045Z,100491.66
2019-01-12T17:33:36.563Z,100502.61
2019-01-12T17:36:08.593Z,100497.87
2019-01-12T17:38:39.817Z,100496.25
2019-01-12T17:41:11.051Z,100482.50
2019-01-12T17:43:42.485Z,100493.23
2019-01-12T17:46:14.251Z,100495.47
2019-01-12T17:48:45.503Z,100499.95
2019-01-12T17:51:16.948Z,100503.84
2019-01-12T17:53:48.386Z,100506.50
2019-01-12T17:56:19.808Z,100501.61
2019-01-12T17:58:51.794Z,100507.31
2019-01-12T18:01:23.076Z,100505.16
2019-01-12T18:03:58.316Z,100508.67
2019-01-12T18:06:29.613Z,100509.15
2019-01-12T18:09:01.825Z,100508.19
2019-01-12T18:11:33.071Z,100513.71
2019-01-12T18:14:04.742Z,100504.84
2019-01-12T18:16:36.023Z,100510.55
2019-01-12T18:19:07.164Z,100517.57
2019-01-12T18:21:38.463Z,100518.00
2019-01-12T18:24:09.677Z,100521.08
2019-01-12T18:26:41.218Z,100515.09
2019-01-12T18:29:19.249Z,100501.20
2019-01-12T18:31:50.533Z,100518.79
2019-01-12T18:34:21.781Z,100508.88
2019-01-12T18:36:53.052Z,100519.29
2019-01-12T18:39:30.621Z,100521.56
2019-01-12T18:42:04.752Z,100526.38
2019-01-12T18:44:35.964Z,100518.86
2019-01-12T18:47:07.373Z,100521.63
2019-01-12T18:49:38.677Z,100519.14
2019-01-12T18:52:10.050Z,100513.62
2019-01-12T18:54:41.306Z,100521.20
2019-01-12T18:57:12.546Z,100513.12
2019-01-12T18:59:43.809Z,100513.69
2019-01-12T19:02:15.114Z,100511.42
2019-01-12T19:04:46.361Z,100508.30
2019-01-12T19:07:17.579Z,100514.43
2019-01-12T19:09:48.902Z,100511.11
2019-01-12T19:12:20.233Z,100503.34
2019-01-12T19:14:51.510Z,100512.42
2019-01-12T19:17:25.951Z,100512.31
2019-01-12T19:19:57.272Z,100514.09
2019-01-12T19:22:28.616Z,100510.19
2019-01-12T19:24:59.929Z,100498.15
2019-01-12T19:27:31.174Z,100500.20
2019-01-12T19:30:02.463Z,100502.11
2019-01-12T19:32:33.701Z,100505.16
2019-01-12T19:35:05.233Z,100508.84
2019-01-12T19:37:36.534Z,100516.11
2019-01-12T19:40:12.610Z,100509.91
2019-01-12T19:42:43.879Z,100498.78
2019-01-12T19:45:16.593Z,100506.19
2019-01-12T19:47:47.869Z,100500.56
2019-01-12T19:50:22.685Z,100507.22
2019-01-12T19:52:54.052Z,100513.80
2019-01-12T19:55:25.414Z,100509.38
2019-01-12T19:57:56.681Z,100510.23
2019-01-12T20:00:37.348Z,100497.37
2019-01-12T20:03:08.608Z,100492.23
2019-01-12T20:05:39.851Z,100497.65
2019-01-12T20:08:11.130Z,100490.03
2019-01-12T20:10:42.429Z,100491.55
2019-01-12T20:13:13.650Z,100492.26
2019-01-12T20:15:44.868Z,100493.25
2019-01-12T20:18:16.086Z,100485.74
2019-01-12T20:20:47.347Z,100469.38
2019-01-12T20:23:18.550Z,100476.22
2019-01-12T20:25:49.818Z,100467.40
2019-01-12T20:28:22.691Z,100476.36
2019-01-12T20:32:08.579Z,100475.58
2019-01-12T20:35:19.888Z,100476.08
2019-01-12T20:38:49.632Z,100479.90
2019-01-12T20:42:22.419Z,100476.50
2019-01-12T20:45:28.729Z,100476.40
2019-01-12T20:48:48.796Z,100479.80
2019-01-12T20:52:31.684Z,100474.52
2019-01-12T20:56:16.940Z,100479.09
2019-01-12T20:59:58.782Z,100467.93
2019-01-12T21:03:00.713Z,100466.52
2019-01-12T21:06:07.449Z,100458.65
2019-01-12T21:09:16.988Z,100469.55
2019-01-12T21:13:11.700Z,100470.19
2019-01-12T21:15:58.182Z,100465.45
2019-01-12T21:18:29.435Z,100468.45
2019-01-12T21:21:01.055Z,100468.73
2019-01-12T21:23:32.473Z,100470.16
2019-01-12T21:26:03.784Z,100464.14
2019-01-12T21:28:35.126Z,100455.34
2019-01-12T21:31:06.382Z,100453.65
2019-01-12T21:33:37.728Z,100461.94
2019-01-12T21:36:08.879Z,100459.35
2019-01-12T21:38:40.207Z,100464.45
2019-01-12T21:41:11.452Z,100463.58
2019-01-12T21:43:42.688Z,100460.00
2019-01-12T21:46:13.962Z,100459.36
2019-01-12T21:48:45.292Z,100456.98
2019-01-12T21:51:16.530Z,100457.94
2019-01-12T21:53:47.818Z,100451.42
2019-01-12T21:56:19.007Z,100451.00
2019-01-12T21:58:54.631Z,100452.91
2019-01-12T22:01:25.900Z,100447.81
2019-01-12T22:03:57.172Z,100447.30
2019-01-12T22:06:28.430Z,100455.44
2019-01-12T22:08:59.714Z,100455.94
2019-01-12T22:11:30.823Z,100460.58
2019-01-12T22:14:02.351Z,100459.04
2019-01-12T22:16:33.516Z,100454.72
2019-01-12T22:19:04.806Z,100458.19
2019-01-12T22:21:36.119Z,100460.96
2019-01-12T22:24:07.470Z,100461.13
2019-01-12T22:26:38.780Z,100456.33
2019-01-12T22:29:10.058Z,100455.33
2019-01-12T22:31:41.355Z,100457.23
2019-01-12T22:34:12.537Z,100459.66
2019-01-12T22:36:43.832Z,100455.64
2019-01-12T22:39:15.118Z,100459.72
2019-01-12T22:41:46.354Z,100456.33
2019-01-12T22:44:17.688Z,100450.27
2019-01-12T22:46:48.951Z,100450.27
2019-01-12T22:49:20.143Z,100448.07
2019-01-12T22:51:51.391Z,100446.76
2019-01-12T22:54:22.559Z,100444.28
2019-01-12T22:56:53.922Z,100443.33
2019-01-12T22:59:25.274Z,100438.94
2019-01-12T23:02:09.368Z,100434.30
2019-01-12T23:04:40.639Z,100431.98
2019-01-12T23:07:12.235Z,100436.38
2019-01-12T23:09:43.697Z,100439.66
2019-01-12T23:12:15.045Z,100433.14
2019-01-12T23:14:46.400Z,100430.33
2019-01-12T23:17:17.797Z,100428.05
2019-01-12T23:19:49.197Z,100429.41
2019-01-12T23:22:20.391Z,100416.60
2019-01-12T23:24:51.656Z,100413.22
2019-01-12T23:27:22.919Z,100406.42
2019-01-12T23:29:54.123Z,100411.86
2019-01-12T23:32:25.424Z,100412.08
2019-01-12T23:34:56.672Z,100407.77
2019-01-12T23:37:28.917Z,100412.38
2019-01-12T23:40:00.244Z,100413.78
2019-01-12T23:42:31.578Z,100417.10
2019-01-12T23:45:02.890Z,100415.98
2019-01-12T23:47:34.259Z,100418.42
2019-01-12T23:50:06.048Z,100422.59
2019-01-12T23:52:37.362Z,100423.86
2019-01-12T23:55:09.701Z,100426.79
2019-01-12T23:57:41.411Z,100423.70
